createdAt,value
2018-08-02T00:00:20.357Z,90.00
2018-08-02T00:02:48.482Z,89.90
2018-08-02T00:05:16.717Z,89.90
2018-08-02T00:07:44.843Z,90.00
2018-08-02T00:10:12.977Z,90.00
2018-08-02T00:12:41.117Z,90.10
2018-08-02T00:15:09.919Z,90.10
2018-08-02T00:17:38.982Z,90.30
2018-08-02T00:20:08.629Z,90.20
2018-08-02T00:22:37.325Z,90.10
2018-08-02T00:25:06.005Z,90.50
2018-08-02T00:27:34.294Z,90.00
2018-08-02T00:30:02.771Z,90.00
2018-08-02T00:32:31.058Z,90.00
2018-08-02T00:34:59.206Z,90.10
2018-08-02T00:37:27.406Z,90.20
2018-08-02T00:39:56.177Z,90.10
2018-08-02T00:42:24.334Z,90.20
2018-08-02T00:44:52.453Z,90.40
2018-08-02T00:47:20.583Z,90.30
2018-08-02T00:49:48.701Z,90.40
2018-08-02T00:52:16.830Z,90.30
2018-08-02T00:54:45.020Z,90.40
2018-08-02T00:57:13.121Z,90.30
2018-08-02T00:59:41.250Z,90.40
2018-08-02T01:02:09.382Z,90.30
2018-08-02T01:04:37.505Z,90.70
2018-08-02T01:07:05.814Z,90.50
2018-08-02T01:09:33.974Z,90.40
2018-08-02T01:12:02.165Z,90.70
2018-08-02T01:14:30.318Z,90.70
2018-08-02T01:16:58.489Z,90.80
2018-08-02T01:19:26.658Z,90.80
2018-08-02T01:21:54.814Z,90.80
2018-08-02T01:24:22.985Z,90.90
2018-08-02T01:26:51.147Z,90.90
2018-08-02T01:29:19.305Z,91.00
2018-08-02T01:31:47.470Z,91.00
2018-08-02T01:34:15.645Z,91.10
2018-08-02T01:36:43.797Z,91.20
2018-08-02T01:39:12.478Z,91.40
2018-08-02T01:41:40.625Z,91.30
2018-08-02T01:44:20.346Z,91.10
2018-08-02T01:46:48.969Z,91.20
2018-08-02T01:49:18.220Z,91.30
2018-08-02T01:51:46.389Z,91.40
2018-08-02T01:54:14.556Z,91.50
2018-08-02T01:56:42.717Z,91.50
2018-08-02T01:59:10.889Z,91.40
2018-08-02T02:01:39.037Z,91.90
2018-08-02T02:04:07.239Z,91.70
2018-08-02T02:06:35.394Z,91.70
2018-08-02T02:09:04.741Z,91.70
2018-08-02T02:11:32.866Z,91.60
2018-08-02T02:14:01.008Z,91.70
2018-08-02T02:16:29.126Z,91.80
2018-08-02T02:18:57.258Z,91.70
2018-08-02T02:21:25.373Z,91.90
2018-08-02T02:23:53.598Z,92.00
2018-08-02T02:26:21.726Z,92.00
2018-08-02T02:28:49.850Z,92.10
2018-08-02T02:31:17.989Z,92.20
2018-08-02T02:33:46.195Z,92.20
2018-08-02T02:36:14.338Z,92.20
2018-08-02T02:38:42.492Z,92.20
2018-08-02T02:41:10.593Z,92.20
2018-08-02T02:43:38.829Z,92.60
2018-08-02T02:46:06.961Z,92.40
2018-08-02T02:48:35.073Z,92.40
2018-08-02T02:51:03.216Z,92.40
2018-08-02T02:53:31.515Z,92.50
2018-08-02T02:55:59.649Z,92.40
2018-08-02T02:58:27.777Z,92.50
2018-08-02T03:00:55.902Z,92.40
2018-08-02T03:03:24.057Z,92.50
2018-08-02T03:05:52.209Z,92.60
2018-08-02T03:08:20.372Z,92.70
2018-08-02T03:10:48.536Z,92.70
2018-08-02T03:13:16.694Z,92.60
2018-08-02T03:15:44.873Z,92.70
2018-08-02T03:18:13.027Z,92.80
2018-08-02T03:20:41.182Z,92.90
2018-08-02T03:23:09.350Z,93.00
2018-08-02T03:25:37.501Z,93.10
2018-08-02T03:28:05.665Z,93.10
2018-08-02T03:30:33.825Z,93.10
2018-08-02T03:33:02.061Z,92.90
2018-08-02T03:35:30.214Z,93.00
2018-08-02T03:37:58.394Z,93.20
2018-08-02T03:40:26.557Z,93.30
2018-08-02T03:42:54.729Z,93.30
2018-08-02T03:45:23.090Z,93.50
2018-08-02T03:47:51.245Z,93.50
2018-08-02T03:50:19.405Z,93.60
2018-08-02T03:52:47.562Z,93.60
2018-08-02T03:55:15.722Z,93.60
2018-08-02T03:57:43.885Z,93.60
2018-08-02T04:00:12.046Z,93.60
2018-08-02T04:02:40.218Z,93.70
2018-08-02T04:05:08.381Z,93.80
2018-08-02T04:07:36.613Z,93.90
2018-08-02T04:10:05.205Z,93.80
2018-08-02T04:12:33.365Z,93.90
2018-08-02T04:15:01.635Z,94.00
2018-08-02T04:17:29.684Z,94.10
2018-08-02T04:19:57.850Z,94.00
2018-08-02T04:24:53.989Z,94.00
2018-08-02T04:27:22.181Z,94.10
2018-08-02T04:29:50.344Z,94.20
2018-08-02T04:32:18.634Z,94.30
2018-08-02T04:34:46.839Z,94.50
2018-08-02T04:37:15.055Z,94.40
2018-08-02T04:39:43.359Z,94.40
2018-08-02T04:42:11.640Z,94.50
2018-08-02T04:44:39.778Z,94.70
2018-08-02T04:47:07.970Z,94.90
2018-08-02T04:49:36.182Z,95.10
2018-08-02T04:52:04.384Z,95.10
2018-08-02T04:54:32.595Z,95.40
2018-08-02T04:57:00.795Z,95.20
2018-08-02T04:59:28.994Z,95.20
2018-08-02T05:01:57.282Z,95.30
2018-08-02T05:06:53.411Z,95.50
2018-08-02T05:09:21.550Z,95.50
2018-08-02T05:11:49.689Z,95.60
2018-08-02T05:16:45.813Z,95.40
2018-08-02T05:19:13.937Z,95.40
2018-08-02T05:21:42.066Z,95.20
2018-08-02T05:24:10.177Z,95.00
2018-08-02T05:26:38.310Z,95.60
2018-08-02T05:29:06.462Z,95.30
2018-08-02T05:31:34.601Z,95.40
2018-08-02T05:34:02.778Z,95.50
2018-08-02T05:36:31.441Z,95.50
2018-08-02T05:38:58.982Z,95.60
2018-08-02T05:41:27.110Z,95.30
2018-08-02T05:43:55.319Z,95.20
2018-08-02T05:46:23.449Z,95.30
2018-08-02T05:48:51.570Z,95.40
2018-08-02T05:51:19.697Z,95.40
2018-08-02T05:53:47.817Z,95.40
2018-08-02T05:56:15.934Z,95.10
2018-08-02T05:58:44.066Z,95.00
2018-08-02T06:01:12.256Z,95.50
2018-08-02T06:03:40.373Z,95.70
2018-08-02T06:06:08.511Z,95.30
2018-08-02T06:08:36.638Z,95.60
2018-08-02T06:11:04.763Z,95.40
2018-08-02T06:13:32.894Z,95.10
2018-08-02T06:16:01.010Z,95.40
2018-08-02T06:18:29.133Z,95.40
2018-08-02T06:20:57.263Z,95.50
2018-08-02T06:23:25.381Z,95.70
2018-08-02T06:25:53.501Z,95.70
2018-08-02T06:28:21.790Z,95.60
2018-08-02T06:30:49.877Z,95.70
2018-08-02T06:33:18.006Z,95.80
2018-08-02T06:35:46.133Z,95.70
2018-08-02T06:38:14.385Z,95.90
2018-08-02T06:40:42.523Z,96.10
2018-08-02T06:43:10.673Z,95.80
2018-08-02T06:45:38.798Z,95.70
2018-08-02T06:48:05.981Z,95.90
2018-08-02T06:53:02.031Z,95.80
2018-08-02T06:55:30.153Z,95.90
2018-08-02T06:57:58.290Z,96.20
2018-08-02T07:00:26.419Z,95.80
2018-08-02T07:02:54.545Z,95.90
2018-08-02T07:05:22.688Z,95.60
2018-08-02T07:07:50.990Z,95.50
2018-08-02T07:10:19.178Z,95.30
2018-08-02T07:12:47.337Z,95.40
2018-08-02T07:15:15.517Z,95.40
2018-08-02T07:17:43.689Z,95.30
2018-08-02T07:20:11.894Z,95.10
2018-08-02T07:22:40.061Z,95.10
2018-08-02T07:25:08.310Z,95.20
2018-08-02T07:27:36.468Z,95.10
2018-08-02T07:30:05.568Z,95.40
2018-08-02T07:32:33.814Z,95.00
2018-08-02T07:35:02.181Z,95.00
2018-08-02T07:37:44.148Z,95.00
2018-08-02T07:43:03.404Z,95.00
2018-08-02T07:45:31.515Z,95.00
2018-08-02T07:47:59.678Z,94.80
2018-08-02T07:50:27.927Z,94.80
2018-08-02T07:52:56.082Z,94.70
2018-08-02T07:55:24.244Z,94.80
2018-08-02T07:57:52.398Z,95.00
2018-08-02T08:00:20.603Z,94.40
2018-08-02T08:02:49.762Z,94.30
2018-08-02T08:05:17.911Z,94.60
2018-08-02T08:07:46.083Z,93.90
2018-08-02T08:10:14.270Z,93.90
2018-08-02T08:12:43.073Z,93.30
2018-08-02T08:15:11.612Z,93.00
2018-08-02T08:17:39.778Z,92.90
2018-08-02T08:20:07.959Z,92.30
2018-08-02T08:25:05.510Z,92.00
2018-08-02T08:27:33.724Z,92.40
2018-08-02T08:30:01.875Z,92.00
2018-08-02T08:32:30.035Z,91.60
2018-08-02T08:34:58.185Z,91.50
2018-08-02T08:37:26.400Z,91.50
2018-08-02T08:39:54.556Z,91.80
2018-08-02T08:42:22.711Z,92.00
2018-08-02T08:44:50.866Z,91.80
2018-08-02T08:47:19.023Z,91.90
2018-08-02T08:49:48.452Z,91.90
2018-08-02T08:52:16.874Z,92.30
2018-08-02T08:54:45.011Z,92.00
2018-08-02T08:57:13.422Z,92.10
2018-08-02T08:59:45.226Z,92.20
2018-08-02T09:02:13.373Z,92.00
2018-08-02T09:04:42.401Z,91.70
2018-08-02T09:07:10.687Z,91.80
2018-08-02T09:09:38.854Z,91.50
2018-08-02T09:12:06.998Z,91.80
2018-08-02T09:14:35.201Z,91.70
2018-08-02T09:17:03.362Z,91.60
2018-08-02T09:19:31.593Z,91.20
2018-08-02T09:22:00.778Z,90.90
2018-08-02T09:24:28.930Z,90.80
2018-08-02T09:26:57.124Z,90.90
2018-08-02T09:29:25.270Z,91.10
2018-08-02T09:31:53.397Z,91.40
2018-08-02T09:34:21.554Z,91.70
2018-08-02T09:36:49.746Z,91.60
2018-08-02T09:39:17.911Z,91.80
2018-08-02T09:41:46.090Z,91.70
2018-08-02T09:44:14.251Z,91.60
2018-08-02T09:46:42.539Z,91.60
2018-08-02T09:49:10.542Z,91.60
2018-08-02T09:51:38.690Z,91.60
2018-08-02T09:54:06.846Z,91.60
2018-08-02T09:56:35.018Z,91.60
2018-08-02T09:59:03.175Z,91.50
2018-08-02T10:01:36.626Z,91.30
2018-08-02T10:04:04.792Z,91.20
2018-08-02T10:06:32.946Z,91.20
2018-08-02T10:09:01.122Z,91.30
2018-08-02T10:11:29.275Z,91.40
2018-08-02T10:13:57.418Z,90.40
2018-08-02T10:16:25.607Z,90.50
2018-08-02T10:18:54.254Z,90.60
2018-08-02T10:21:33.415Z,90.10
2018-08-02T10:24:01.606Z,90.00
2018-08-02T10:26:29.778Z,90.50
2018-08-02T10:28:57.914Z,90.20
2018-08-02T10:31:26.228Z,90.50
2018-08-02T10:33:54.366Z,88.50
2018-08-02T10:36:22.532Z,90.10
2018-08-02T10:38:50.859Z,89.40
2018-08-02T10:41:19.022Z,88.60
2018-08-02T10:43:47.209Z,88.70
2018-08-02T10:46:15.316Z,88.20
2018-08-02T10:48:43.459Z,85.70
2018-08-02T10:51:11.610Z,87.40
2018-08-02T10:53:39.754Z,86.80
2018-08-02T10:56:07.961Z,86.40
2018-08-02T10:58:36.046Z,87.10
2018-08-02T11:01:04.300Z,84.60
2018-08-02T11:03:32.942Z,86.00
2018-08-02T11:06:01.102Z,86.40
2018-08-02T11:08:29.407Z,85.20
2018-08-02T11:10:57.562Z,85.80
2018-08-02T11:13:25.722Z,83.80
2018-08-02T11:15:53.870Z,83.90
2018-08-02T11:18:22.031Z,81.70
2018-08-02T11:20:50.178Z,82.50
2018-08-02T11:23:18.322Z,81.60
2018-08-02T11:25:46.461Z,82.00
2018-08-02T11:28:14.661Z,82.30
2018-08-02T11:30:42.778Z,83.10
2018-08-02T11:33:10.934Z,78.20
2018-08-02T11:35:39.109Z,76.00
2018-08-02T11:38:07.270Z,77.40
2018-08-02T11:40:35.426Z,79.50
2018-08-02T11:43:03.587Z,81.30
2018-08-02T11:45:31.726Z,80.00
2018-08-02T11:48:00.159Z,80.00
2018-08-02T11:50:28.318Z,79.00
2018-08-02T11:52:56.462Z,81.00
2018-08-02T11:55:24.627Z,81.90
2018-08-02T11:57:52.778Z,82.70
2018-08-02T12:00:20.922Z,83.10
2018-08-02T12:02:49.083Z,82.70
2018-08-02T12:05:17.226Z,81.90
2018-08-02T12:07:45.374Z,82.30
2018-08-02T12:10:13.534Z,82.00
2018-08-02T12:12:41.678Z,81.10
2018-08-02T12:15:09.859Z,79.70
2018-08-02T12:17:37.994Z,79.50
2018-08-02T12:20:06.471Z,80.00
2018-08-02T12:22:34.616Z,79.80
2018-08-02T12:25:02.800Z,76.50
2018-08-02T12:27:30.950Z,78.20
2018-08-02T12:29:59.102Z,79.30
2018-08-02T12:32:27.257Z,79.40
2018-08-02T12:34:55.443Z,79.30
2018-08-02T12:37:23.569Z,79.40
2018-08-02T12:39:51.718Z,79.90
2018-08-02T12:42:19.920Z,78.00
2018-08-02T12:44:48.062Z,76.80
2018-08-02T12:47:16.202Z,77.90
2018-08-02T12:49:44.356Z,76.60
2018-08-02T12:52:12.530Z,76.60
2018-08-02T12:54:40.705Z,74.90
2018-08-02T12:57:08.806Z,73.70
2018-08-02T12:59:37.427Z,76.00
2018-08-02T13:02:05.571Z,74.10
2018-08-02T13:04:33.726Z,75.60
2018-08-02T13:07:01.866Z,75.10
2018-08-02T13:09:30.156Z,77.00
2018-08-02T13:11:58.154Z,75.70
2018-08-02T13:14:26.311Z,74.70
2018-08-02T13:16:54.452Z,76.10
2018-08-02T13:19:22.609Z,79.20
2018-08-02T13:21:50.764Z,77.10
2018-08-02T13:24:18.945Z,79.50
2018-08-02T13:26:47.086Z,76.10
2018-08-02T13:29:15.239Z,77.30
2018-08-02T13:31:43.389Z,75.80
2018-08-02T13:34:11.532Z,77.20
2018-08-02T13:36:39.695Z,77.50
2018-08-02T13:39:08.553Z,75.70
2018-08-02T13:41:36.851Z,75.00
2018-08-02T13:44:05.250Z,76.30
2018-08-02T13:46:33.401Z,76.50
2018-08-02T13:49:01.559Z,76.80
2018-08-02T13:51:29.730Z,74.60
2018-08-02T13:53:57.878Z,75.00
2018-08-02T13:56:26.038Z,76.10
2018-08-02T13:58:54.205Z,74.70
2018-08-02T14:01:22.374Z,75.50
2018-08-02T14:03:50.514Z,76.10
2018-08-02T14:06:18.673Z,72.90
2018-08-02T14:08:46.830Z,75.30
2018-08-02T14:11:14.978Z,75.40
2018-08-02T14:13:43.143Z,73.70
2018-08-02T14:16:11.326Z,73.20
2018-08-02T14:18:39.479Z,75.90
2018-08-02T14:21:07.649Z,77.90
2018-08-02T14:23:35.802Z,76.00
2018-08-02T14:26:03.983Z,75.90
2018-08-02T14:28:32.140Z,76.40
2018-08-02T14:31:00.289Z,75.50
2018-08-02T14:33:28.449Z,74.90
2018-08-02T14:35:56.590Z,74.90
2018-08-02T14:38:24.803Z,74.80
2018-08-02T14:40:52.938Z,75.40
2018-08-02T14:43:21.108Z,74.30
2018-08-02T14:45:49.265Z,75.60
2018-08-02T14:48:17.406Z,77.30
2018-08-02T14:50:45.550Z,76.50
2018-08-02T14:53:13.706Z,76.20
2018-08-02T14:55:41.854Z,75.60
2018-08-02T14:58:10.028Z,75.30
2018-08-02T15:00:38.213Z,78.00
2018-08-02T15:03:06.346Z,78.10
2018-08-02T15:05:34.490Z,75.80
2018-08-02T15:08:02.622Z,79.10
2018-08-02T15:10:30.780Z,72.60
2018-08-02T15:12:58.915Z,73.30
2018-08-02T15:15:27.096Z,77.40
2018-08-02T15:17:55.966Z,78.30
2018-08-02T15:20:24.134Z,78.20
2018-08-02T15:22:52.302Z,78.50
2018-08-02T15:25:20.510Z,74.20
2018-08-02T15:27:48.666Z,72.90
2018-08-02T15:30:16.838Z,75.20
2018-08-02T15:32:44.998Z,72.80
2018-08-02T15:35:13.186Z,72.10
2018-08-02T15:37:41.329Z,71.60
2018-08-02T15:40:09.573Z,71.60
2018-08-02T15:42:37.682Z,72.30
2018-08-02T15:45:06.194Z,71.30
2018-08-02T15:47:34.324Z,74.90
2018-08-02T15:50:02.463Z,73.80
2018-08-02T15:52:30.628Z,75.20
2018-08-02T15:54:58.761Z,74.70
2018-08-02T15:57:26.916Z,73.90
2018-08-02T15:59:55.055Z,76.70
2018-08-02T16:02:23.210Z,76.20
2018-08-02T16:04:51.373Z,74.70
2018-08-02T16:07:19.558Z,75.10
2018-08-02T16:09:47.698Z,74.40
2018-08-02T16:12:15.849Z,75.20
2018-08-02T16:14:43.994Z,76.20
2018-08-02T16:17:12.150Z,78.00
2018-08-02T16:19:40.286Z,76.00
2018-08-02T16:22:08.462Z,76.40
2018-08-02T16:24:36.718Z,75.30
2018-08-02T16:27:04.949Z,75.90
2018-08-02T16:29:33.098Z,76.20
2018-08-02T16:32:01.285Z,77.50
2018-08-02T16:34:29.450Z,76.00
2018-08-02T16:36:57.599Z,74.80
2018-08-02T16:39:25.739Z,77.00
2018-08-02T16:41:53.913Z,76.90
2018-08-02T16:44:22.054Z,78.70
2018-08-02T16:46:50.194Z,76.30
2018-08-02T16:51:46.335Z,78.90
2018-08-02T16:54:14.482Z,79.50
2018-08-02T16:56:42.635Z,79.90
2018-08-02T16:59:10.813Z,77.90
2018-08-02T17:01:39.038Z,79.80
2018-08-02T17:04:07.227Z,80.30
2018-08-02T17:06:35.378Z,79.00
2018-08-02T17:09:04.646Z,77.50
2018-08-02T17:11:32.806Z,77.30
2018-08-02T17:14:00.954Z,77.80
2018-08-02T17:16:29.110Z,76.80
2018-08-02T17:18:57.274Z,77.50
2018-08-02T17:21:25.846Z,76.10
2018-08-02T17:23:54.019Z,79.50
2018-08-02T17:26:22.190Z,79.40
2018-08-02T17:28:50.513Z,78.10
2018-08-02T17:31:18.694Z,78.40
2018-08-02T17:33:46.935Z,77.50
2018-08-02T17:36:15.113Z,78.00
2018-08-02T17:38:43.254Z,78.70
2018-08-02T17:41:11.414Z,77.90
2018-08-02T17:43:39.626Z,77.60
2018-08-02T17:46:07.789Z,78.20
2018-08-02T17:48:36.011Z,78.00
2018-08-02T17:51:04.143Z,77.80
2018-08-02T17:56:00.306Z,77.50
2018-08-02T18:00:56.422Z,77.60
2018-08-02T18:03:25.448Z,77.30
2018-08-02T18:05:53.670Z,77.30
2018-08-02T18:08:21.842Z,77.40
2018-08-02T18:10:50.640Z,77.90
2018-08-02T18:13:18.830Z,77.40
2018-08-02T18:15:46.999Z,77.50
2018-08-02T18:18:15.263Z,79.30
2018-08-02T18:20:43.434Z,78.60
2018-08-02T18:23:11.606Z,78.80
2018-08-02T18:25:39.796Z,79.00
2018-08-02T18:28:08.215Z,78.50
2018-08-02T18:30:36.381Z,78.80
2018-08-02T18:33:04.551Z,79.30
2018-08-02T18:35:32.711Z,79.20
2018-08-02T18:38:00.875Z,79.70
2018-08-02T18:40:29.027Z,79.90
2018-08-02T18:42:57.199Z,80.20
2018-08-02T18:45:25.355Z,80.10
2018-08-02T18:47:53.554Z,79.80
2018-08-02T18:50:21.711Z,79.90
2018-08-02T18:52:50.214Z,79.90
2018-08-02T18:55:18.399Z,79.80
2018-08-02T18:57:46.575Z,79.80
2018-08-02T19:00:14.728Z,80.60
2018-08-02T19:02:42.943Z,79.60
2018-08-02T19:05:11.519Z,79.90
2018-08-02T19:07:39.788Z,80.60
2018-08-02T19:10:07.967Z,80.10
2018-08-02T19:12:36.144Z,80.30
2018-08-02T19:15:06.254Z,80.30
2018-08-02T19:17:34.416Z,80.40
2018-08-02T19:20:02.586Z,80.40
2018-08-02T19:22:30.770Z,80.70
2018-08-02T19:24:58.993Z,80.60
2018-08-02T19:27:27.147Z,80.70
2018-08-02T19:29:55.341Z,80.90
2018-08-02T19:32:23.503Z,81.00
2018-08-02T19:34:51.671Z,81.10
2018-08-02T19:37:19.844Z,81.40
2018-08-02T19:39:48.015Z,82.00
2018-08-02T19:42:16.179Z,82.10
2018-08-02T19:44:44.339Z,82.10
2018-08-02T19:47:12.523Z,82.20
2018-08-02T19:49:40.690Z,82.30
2018-08-02T19:52:08.837Z,82.40
2018-08-02T19:54:38.055Z,82.30
2018-08-02T19:57:06.230Z,82.40
2018-08-02T19:59:34.444Z,82.70
2018-08-02T20:02:02.606Z,82.90
2018-08-02T20:04:30.766Z,82.70
2018-08-02T20:06:59.041Z,83.00
2018-08-02T20:09:27.099Z,82.80
2018-08-02T20:11:55.259Z,82.30
2018-08-02T20:14:23.443Z,82.40
2018-08-02T20:16:51.633Z,82.10
2018-08-02T20:19:19.811Z,81.80
2018-08-02T20:21:48.060Z,82.00
2018-08-02T20:24:16.165Z,81.80
2018-08-02T20:26:44.355Z,82.00
2018-08-02T20:29:12.620Z,82.20
2018-08-02T20:31:40.780Z,82.20
2018-08-02T20:36:43.628Z,82.10
2018-08-02T20:39:12.527Z,82.10
2018-08-02T20:41:41.112Z,81.70
2018-08-02T20:44:09.272Z,80.90
2018-08-02T20:46:37.573Z,81.40
2018-08-02T20:49:06.397Z,81.10
2018-08-02T20:51:34.676Z,81.20
2018-08-02T20:54:02.850Z,81.20
2018-08-02T20:56:31.056Z,81.50
2018-08-02T20:58:59.235Z,81.80
2018-08-02T21:01:27.463Z,82.00
2018-08-02T21:03:55.619Z,82.10
2018-08-02T21:06:23.795Z,82.10
2018-08-02T21:08:51.995Z,82.10
2018-08-02T21:11:20.229Z,82.40
2018-08-02T21:13:48.482Z,82.50
2018-08-02T21:16:16.648Z,82.50
2018-08-02T21:18:44.818Z,82.70
2018-08-02T21:21:12.966Z,83.30
2018-08-02T21:23:41.160Z,83.60
2018-08-02T21:26:09.331Z,83.80
2018-08-02T21:28:37.484Z,84.20
2018-08-02T21:31:05.663Z,84.40
2018-08-02T21:33:33.874Z,84.70
2018-08-02T21:38:29.995Z,85.10
2018-08-02T21:40:58.283Z,85.30
2018-08-02T21:43:26.461Z,85.20
2018-08-02T21:45:54.624Z,85.30
2018-08-02T21:48:22.816Z,85.70
2018-08-02T21:50:50.975Z,85.60
2018-08-02T21:53:19.143Z,85.90
2018-08-02T21:55:47.307Z,85.90
2018-08-02T21:58:15.467Z,86.10
2018-08-02T22:00:43.622Z,86.20
2018-08-02T22:03:11.819Z,86.50
2018-08-02T22:05:41.307Z,87.00
2018-08-02T22:08:10.899Z,86.70
2018-08-02T22:10:39.187Z,87.00
2018-08-02T22:13:12.753Z,87.10
2018-08-02T22:15:46.307Z,87.40
2018-08-02T22:18:14.468Z,87.30
2018-08-02T22:20:42.641Z,87.20
2018-08-02T22:23:10.798Z,87.50
2018-08-02T22:25:38.967Z,87.50
2018-08-02T22:28:07.119Z,87.60
2018-08-02T22:30:35.288Z,87.80
2018-08-02T22:33:03.843Z,88.20
2018-08-02T22:35:32.012Z,88.40
2018-08-02T22:38:00.163Z,88.20
2018-08-02T22:40:28.327Z,88.20
2018-08-02T22:42:56.508Z,88.30
2018-08-02T22:45:24.676Z,88.20
2018-08-02T22:47:52.835Z,88.40
2018-08-02T22:50:20.995Z,88.40
2018-08-02T22:52:49.172Z,88.50
2018-08-02T22:55:17.335Z,88.80
2018-08-02T22:57:45.482Z,88.90
2018-08-02T23:00:13.658Z,89.10
2018-08-02T23:02:41.825Z,89.60
2018-08-02T23:05:10.619Z,89.90
2018-08-02T23:07:38.757Z,89.80
2018-08-02T23:10:06.960Z,89.80
2018-08-02T23:12:35.116Z,89.80
2018-08-02T23:15:03.286Z,89.80
2018-08-02T23:17:31.447Z,89.70
2018-08-02T23:19:59.599Z,89.80
2018-08-02T23:22:27.763Z,89.80
2018-08-02T23:24:55.914Z,90.00
2018-08-02T23:27:24.075Z,89.80
2018-08-02T23:29:52.246Z,90.00
2018-08-02T23:32:20.402Z,90.00
2018-08-02T23:34:48.559Z,89.90
2018-08-02T23:37:16.714Z,90.10
2018-08-02T23:39:45.710Z,90.10
2018-08-02T23:42:13.890Z,90.20
2018-08-02T23:44:42.035Z,90.20
2018-08-02T23:49:38.138Z,90.30
2018-08-02T23:52:06.296Z,90.20
2018-08-02T23:54:34.468Z,90.20
2018-08-02T23:57:02.622Z,90.30
2018-08-02T23:59:30.762Z,90.30
